sensor_id;sensor_type;location;lat;lon;timestamp;pressure;altitude;pressure_sealevel;temperature;humidity
80654;BME280;70020;45.524;10.240;2023-07-02T00:01:02;99434.06;;;25.58;63.00
80654;BME280;70020;45.524;10.240;2023-07-02T00:03:28;99434.06;;;25.58;63.36
80654;BME280;70020;45.524;10.240;2023-07-02T00:05:54;99438.47;;;25.46;62.98
80654;BME280;70020;45.524;10.240;2023-07-02T00:08:21;99432.19;;;25.41;63.27
80654;BME280;70020;45.524;10.240;2023-07-02T00:10:47;99434.00;;;25.22;63.25
80654;BME280;70020;45.524;10.240;2023-07-02T00:13:13;99436.91;;;25.39;63.94
80654;BME280;70020;45.524;10.240;2023-07-02T00:15:39;99427.16;;;25.33;64.15
80654;BME280;70020;45.524;10.240;2023-07-02T00:18:04;99430.59;;;25.15;64.03
80654;BME280;70020;45.524;10.240;2023-07-02T00:20:30;99419.28;;;25.26;63.93
80654;BME280;70020;45.524;10.240;2023-07-02T00:23:00;99419.94;;;25.22;64.57
80654;BME280;70020;45.524;10.240;2023-07-02T00:25:26;99419.66;;;25.30;64.34
80654;BME280;70020;45.524;10.240;2023-07-02T00:27:51;99422.75;;;25.27;63.71
80654;BME280;70020;45.524;10.240;2023-07-02T00:30:17;99419.44;;;25.31;63.83
80654;BME280;70020;45.524;10.240;2023-07-02T00:32:42;99423.53;;;25.27;64.34
80654;BME280;70020;45.524;10.240;2023-07-02T00:35:08;99422.94;;;25.25;63.80
80654;BME280;70020;45.524;10.240;2023-07-02T00:37:34;99434.38;;;25.26;64.46
80654;BME280;70020;45.524;10.240;2023-07-02T00:39:59;99435.25;;;25.20;64.58
80654;BME280;70020;45.524;10.240;2023-07-02T00:42:25;99440.16;;;25.16;65.37
80654;BME280;70020;45.524;10.240;2023-07-02T00:44:54;99440.63;;;25.07;65.79
80654;BME280;70020;45.524;10.240;2023-07-02T00:47:21;99442.28;;;25.01;66.74
80654;BME280;70020;45.524;10.240;2023-07-02T00:49:47;99444.81;;;24.96;66.66
80654;BME280;70020;45.524;10.240;2023-07-02T00:52:13;99447.41;;;25.02;66.60
80654;BME280;70020;45.524;10.240;2023-07-02T00:54:38;99446.81;;;25.00;66.76
80654;BME280;70020;45.524;10.240;2023-07-02T00:57:05;99452.34;;;24.92;67.62
80654;BME280;70020;45.524;10.240;2023-07-02T00:59:30;99447.28;;;24.91;67.45
80654;BME280;70020;45.524;10.240;2023-07-02T01:01:56;99446.47;;;24.90;67.74
80654;BME280;70020;45.524;10.240;2023-07-02T01:04:22;99446.47;;;24.90;67.77
80654;BME280;70020;45.524;10.240;2023-07-02T01:06:52;99443.88;;;24.84;67.78
80654;BME280;70020;45.524;10.240;2023-07-02T01:09:22;99439.97;;;24.86;68.14
80654;BME280;70020;45.524;10.240;2023-07-02T01:11:51;99438.78;;;24.82;68.17
80654;BME280;70020;45.524;10.240;2023-07-02T01:14:25;99438.41;;;24.79;68.44
80654;BME280;70020;45.524;10.240;2023-07-02T01:16:51;99440.44;;;24.77;68.81
80654;BME280;70020;45.524;10.240;2023-07-02T01:21:59;99433.97;;;24.66;68.84
80654;BME280;70020;45.524;10.240;2023-07-02T01:24:25;99440.72;;;24.62;69.26
80654;BME280;70020;45.524;10.240;2023-07-02T01:26:51;99432.22;;;24.54;69.60
80654;BME280;70020;45.524;10.240;2023-07-02T01:29:17;99432.25;;;24.47;70.12
80654;BME280;70020;45.524;10.240;2023-07-02T01:31:43;99427.00;;;24.41;70.21
80654;BME280;70020;45.524;10.240;2023-07-02T01:34:09;99432.16;;;24.29;70.66
80654;BME280;70020;45.524;10.240;2023-07-02T01:36:35;99435.44;;;24.24;70.86
80654;BME280;70020;45.524;10.240;2023-07-02T01:39:01;99425.69;;;24.18;71.01
80654;BME280;70020;45.524;10.240;2023-07-02T01:41:27;99423.66;;;24.20;71.17
80654;BME280;70020;45.524;10.240;2023-07-02T01:43:53;99426.13;;;24.15;71.44
80654;BME280;70020;45.524;10.240;2023-07-02T01:46:18;99434.25;;;24.14;71.43
80654;BME280;70020;45.524;10.240;2023-07-02T01:48:44;99427.53;;;24.11;71.42
80654;BME280;70020;45.524;10.240;2023-07-02T01:51:10;99423.28;;;24.04;71.87
80654;BME280;70020;45.524;10.240;2023-07-02T01:53:35;99423.28;;;24.04;72.14
80654;BME280;70020;45.524;10.240;2023-07-02T01:56:01;99427.78;;;23.97;72.34
80654;BME280;70020;45.524;10.240;2023-07-02T01:58:27;99425.16;;;23.97;72.49
80654;BME280;70020;45.524;10.240;2023-07-02T02:00:53;99430.59;;;24.02;72.44
80654;BME280;70020;45.524;10.240;2023-07-02T02:03:19;99430.66;;;23.89;72.91
80654;BME280;70020;45.524;10.240;2023-07-02T02:05:45;99427.78;;;23.90;73.23
80654;BME280;70020;45.524;10.240;2023-07-02T02:08:14;99437.13;;;23.93;72.96
80654;BME280;70020;45.524;10.240;2023-07-02T02:10:39;99441.81;;;23.91;72.94
80654;BME280;70020;45.524;10.240;2023-07-02T02:13:04;99444.31;;;23.73;73.15
80654;BME280;70020;45.524;10.240;2023-07-02T02:15:30;99444.50;;;23.78;72.85
80654;BME280;70020;45.524;10.240;2023-07-02T02:17:55;99435.78;;;23.77;73.11
80654;BME280;70020;45.524;10.240;2023-07-02T02:20:21;99430.72;;;23.76;73.56
80654;BME280;70020;45.524;10.240;2023-07-02T02:22:46;99432.72;;;23.80;72.27
80654;BME280;70020;45.524;10.240;2023-07-02T02:25:12;99431.50;;;23.83;71.88
80654;BME280;70020;45.524;10.240;2023-07-02T02:27:38;99438.38;;;23.84;72.69
80654;BME280;70020;45.524;10.240;2023-07-02T02:30:04;99436.16;;;23.81;72.73
80654;BME280;70020;45.524;10.240;2023-07-02T02:32:30;99438.78;;;23.81;71.93
80654;BME280;70020;45.524;10.240;2023-07-02T02:34:56;99441.44;;;23.81;71.92
80654;BME280;70020;45.524;10.240;2023-07-02T02:37:21;99434.94;;;23.77;72.26
80654;BME280;70020;45.524;10.240;2023-07-02T02:39:48;99442.88;;;23.77;72.07
80654;BME280;70020;45.524;10.240;2023-07-02T02:42:14;99432.53;;;23.75;72.38
80654;BME280;70020;45.524;10.240;2023-07-02T02:44:39;99437.63;;;23.70;72.59
80654;BME280;70020;45.524;10.240;2023-07-02T02:47:04;99438.88;;;23.61;73.10
80654;BME280;70020;45.524;10.240;2023-07-02T02:49:30;99443.53;;;23.59;73.03
80654;BME280;70020;45.524;10.240;2023-07-02T02:51:56;99441.69;;;23.59;73.11
80654;BME280;70020;45.524;10.240;2023-07-02T02:54:21;99439.66;;;23.61;71.35
80654;BME280;70020;45.524;10.240;2023-07-02T02:56:46;99437.22;;;23.60;72.09
80654;BME280;70020;45.524;10.240;2023-07-02T02:59:12;99445.78;;;23.55;71.85
80654;BME280;70020;45.524;10.240;2023-07-02T03:01:38;99446.38;;;23.51;72.62
80654;BME280;70020;45.524;10.240;2023-07-02T03:04:04;99443.75;;;23.44;73.09
80654;BME280;70020;45.524;10.240;2023-07-02T03:06:33;99444.16;;;23.41;72.21
80654;BME280;70020;45.524;10.240;2023-07-02T03:08:59;99444.56;;;23.45;72.36
80654;BME280;70020;45.524;10.240;2023-07-02T03:11:24;99449.44;;;23.41;73.11
80654;BME280;70020;45.524;10.240;2023-07-02T03:13:50;99447.63;;;23.35;71.88
80654;BME280;70020;45.524;10.240;2023-07-02T03:16:16;99459.81;;;23.36;72.44
80654;BME280;70020;45.524;10.240;2023-07-02T03:18:42;99453.06;;;23.34;72.45
80654;BME280;70020;45.524;10.240;2023-07-02T03:21:07;99451.47;;;23.33;72.19
80654;BME280;70020;45.524;10.240;2023-07-02T03:23:33;99451.88;;;23.30;72.31
80654;BME280;70020;45.524;10.240;2023-07-02T03:25:58;99453.09;;;23.27;73.07
80654;BME280;70020;45.524;10.240;2023-07-02T03:28:24;99448.81;;;23.26;72.88
80654;BME280;70020;45.524;10.240;2023-07-02T03:30:52;99456.13;;;23.11;73.72
80654;BME280;70020;45.524;10.240;2023-07-02T03:33:17;99458.97;;;23.03;73.61
80654;BME280;70020;45.524;10.240;2023-07-02T03:35:43;99458.56;;;23.13;73.52
80654;BME280;70020;45.524;10.240;2023-07-02T03:38:09;99461.19;;;23.13;73.34
80654;BME280;70020;45.524;10.240;2023-07-02T03:40:34;99460.97;;;23.14;73.79
80654;BME280;70020;45.524;10.240;2023-07-02T03:43:00;99460.41;;;23.19;73.57
80654;BME280;70020;45.524;10.240;2023-07-02T03:45:26;99470.53;;;23.15;73.40
80654;BME280;70020;45.524;10.240;2023-07-02T03:47:51;99468.91;;;23.14;73.30
80654;BME280;70020;45.524;10.240;2023-07-02T03:50:16;99476.22;;;23.12;73.66
80654;BME280;70020;45.524;10.240;2023-07-02T03:52:42;99468.09;;;23.07;73.65
80654;BME280;70020;45.524;10.240;2023-07-02T03:55:08;99468.91;;;23.08;74.29
80654;BME280;70020;45.524;10.240;2023-07-02T03:57:34;99472.97;;;23.03;73.85
80654;BME280;70020;45.524;10.240;2023-07-02T03:59:59;99468.91;;;23.08;74.14
80654;BME280;70020;45.524;10.240;2023-07-02T04:02:25;99477.25;;;23.11;73.76
80654;BME280;70020;45.524;10.240;2023-07-02T04:04:50;99476.22;;;23.06;74.44
80654;BME280;70020;45.524;10.240;2023-07-02T04:07:15;99469.13;;;23.06;74.43
80654;BME280;70020;45.524;10.240;2023-07-02T04:09:41;99473.78;;;23.04;74.52
80654;BME280;70020;45.524;10.240;2023-07-02T04:12:07;99472.75;;;23.05;74.37
80654;BME280;70020;45.524;10.240;2023-07-02T04:14:33;99486.78;;;23.12;74.08
80654;BME280;70020;45.524;10.240;2023-07-02T04:16:59;99481.91;;;23.09;74.97
80654;BME280;70020;45.524;10.240;2023-07-02T04:19:24;99494.28;;;23.09;74.95
80654;BME280;70020;45.524;10.240;2023-07-02T04:21:50;99482.91;;;23.08;74.77
80654;BME280;70020;45.524;10.240;2023-07-02T04:24:15;99483.75;;;23.09;75.02
80654;BME280;70020;45.524;10.240;2023-07-02T04:26:41;99491.44;;;23.10;74.98
80654;BME280;70020;45.524;10.240;2023-07-02T04:29:07;99494.09;;;23.10;74.85
80654;BME280;70020;45.524;10.240;2023-07-02T04:31:33;99491.66;;;23.09;75.34
80654;BME280;70020;45.524;10.240;2023-07-02T04:33:58;99495.28;;;23.08;75.20
80654;BME280;70020;45.524;10.240;2023-07-02T04:36:24;99497.31;;;23.12;75.37
80654;BME280;70020;45.524;10.240;2023-07-02T04:38:50;99496.72;;;23.10;74.79
80654;BME280;70020;45.524;10.240;2023-07-02T04:41:17;99500.56;;;23.14;74.67
80654;BME280;70020;45.524;10.240;2023-07-02T04:43:43;99502.22;;;23.15;74.67
80654;BME280;70020;45.524;10.240;2023-07-02T04:46:10;99507.72;;;23.20;75.35
80654;BME280;70020;45.524;10.240;2023-07-02T04:48:37;99512.59;;;23.23;74.87
80654;BME280;70020;45.524;10.240;2023-07-02T04:51:03;99512.38;;;23.31;74.92
80654;BME280;70020;45.524;10.240;2023-07-02T04:53:32;99512.63;;;23.36;74.36
80654;BME280;70020;45.524;10.240;2023-07-02T04:55:58;99508.16;;;23.37;75.00
80654;BME280;70020;45.524;10.240;2023-07-02T04:58:24;99511.19;;;23.40;73.95
80654;BME280;70020;45.524;10.240;2023-07-02T05:00:49;99508.34;;;23.48;74.08
80654;BME280;70020;45.524;10.240;2023-07-02T05:03:18;99510.78;;;23.50;73.37
80654;BME280;70020;45.524;10.240;2023-07-02T05:05:44;99512.41;;;23.38;72.71
80654;BME280;70020;45.524;10.240;2023-07-02T05:08:10;99507.94;;;23.45;72.26
80654;BME280;70020;45.524;10.240;2023-07-02T05:10:35;99511.59;;;23.50;71.98
80654;BME280;70020;45.524;10.240;2023-07-02T05:13:01;99516.88;;;23.63;73.57
80654;BME280;70020;45.524;10.240;2023-07-02T05:15:27;99510.97;;;23.55;72.27
80654;BME280;70020;45.524;10.240;2023-07-02T05:17:52;99515.28;;;23.49;72.09
80654;BME280;70020;45.524;10.240;2023-07-02T05:20:17;99517.28;;;23.54;72.12
80654;BME280;70020;45.524;10.240;2023-07-02T05:22:43;99513.63;;;23.75;72.66
80654;BME280;70020;45.524;10.240;2023-07-02T05:25:09;99514.81;;;23.85;72.67
80654;BME280;70020;45.524;10.240;2023-07-02T05:27:34;99520.09;;;23.85;71.30
80654;BME280;70020;45.524;10.240;2023-07-02T05:30:00;99518.06;;;23.81;71.46
80654;BME280;70020;45.524;10.240;2023-07-02T05:32:25;99515.41;;;23.94;72.89
80654;BME280;70020;45.524;10.240;2023-07-02T05:34:51;99511.72;;;23.95;70.82
80654;BME280;70020;45.524;10.240;2023-07-02T05:37:17;99519.69;;;24.08;70.27
80654;BME280;70020;45.524;10.240;2023-07-02T05:39:43;99527.16;;;24.24;70.33
80654;BME280;70020;45.524;10.240;2023-07-02T05:42:08;99521.22;;;24.35;70.26
80654;BME280;70020;45.524;10.240;2023-07-02T05:44:34;99522.63;;;24.38;69.53
80654;BME280;70020;45.524;10.240;2023-07-02T05:46:59;99522.59;;;24.51;70.06
80654;BME280;70020;45.524;10.240;2023-07-02T05:49:24;99519.91;;;24.57;69.24
80654;BME280;70020;45.524;10.240;2023-07-02T05:51:51;99526.38;;;24.68;68.50
80654;BME280;70020;45.524;10.240;2023-07-02T05:54:17;99523.56;;;24.63;67.83
80654;BME280;70020;45.524;10.240;2023-07-02T05:56:42;99526.97;;;24.63;67.94
80654;BME280;70020;45.524;10.240;2023-07-02T05:59:08;99522.78;;;24.49;68.43
80654;BME280;70020;45.524;10.240;2023-07-02T06:01:34;99528.06;;;24.56;68.66
80654;BME280;70020;45.524;10.240;2023-07-02T06:03:59;99525.78;;;24.59;68.17
80654;BME280;70020;45.524;10.240;2023-07-02T06:06:25;99529.44;;;24.65;68.63
80654;BME280;70020;45.524;10.240;2023-07-02T06:08:51;99537.38;;;24.65;68.52
80654;BME280;70020;45.524;10.240;2023-07-02T06:11:16;99536.78;;;24.63;68.38
80654;BME280;70020;45.524;10.240;2023-07-02T06:13:42;99531.81;;;24.73;69.52
80654;BME280;70020;45.524;10.240;2023-07-02T06:16:08;99541.84;;;24.77;69.15
80654;BME280;70020;45.524;10.240;2023-07-02T06:18:33;99545.69;;;24.81;68.24
80654;BME280;70020;45.524;10.240;2023-07-02T06:20:59;99544.34;;;24.97;69.00
80654;BME280;70020;45.524;10.240;2023-07-02T06:23:25;99547.94;;;25.09;68.35
80654;BME280;70020;45.524;10.240;2023-07-02T06:25:50;99546.28;;;25.15;67.96
80654;BME280;70020;45.524;10.240;2023-07-02T06:28:27;99558.88;;;25.19;67.97
80654;BME280;70020;45.524;10.240;2023-07-02T06:30:53;99557.81;;;25.27;67.47
80654;BME280;70020;45.524;10.240;2023-07-02T06:33:18;99558.78;;;25.32;67.81
80654;BME280;70020;45.524;10.240;2023-07-02T06:35:44;99563.31;;;25.56;67.23
80654;BME280;70020;45.524;10.240;2023-07-02T06:38:09;99567.25;;;25.72;67.68
80654;BME280;70020;45.524;10.240;2023-07-02T06:40:35;99564.88;;;25.89;67.10
80654;BME280;70020;45.524;10.240;2023-07-02T06:45:36;99571.31;;;26.24;67.59
80654;BME280;70020;45.524;10.240;2023-07-02T06:48:01;99570.47;;;26.42;66.21
80654;BME280;70020;45.524;10.240;2023-07-02T06:50:27;99568.84;;;26.59;64.53
80654;BME280;70020;45.524;10.240;2023-07-02T06:52:52;99571.56;;;26.70;64.74
80654;BME280;70020;45.524;10.240;2023-07-02T06:55:18;99569.91;;;26.76;65.40
80654;BME280;70020;45.524;10.240;2023-07-02T06:57:44;99568.19;;;26.81;64.74
80654;BME280;70020;45.524;10.240;2023-07-02T07:00:11;99566.19;;;26.77;64.59
80654;BME280;70020;45.524;10.240;2023-07-02T07:02:37;99569.25;;;26.74;65.51
80654;BME280;70020;45.524;10.240;2023-07-02T07:05:02;99564.38;;;26.77;65.48
80654;BME280;70020;45.524;10.240;2023-07-02T07:07:28;99565.25;;;26.71;65.92
80654;BME280;70020;45.524;10.240;2023-07-02T07:09:54;99566.19;;;26.77;65.13
80654;BME280;70020;45.524;10.240;2023-07-02T07:12:19;99569.69;;;26.77;64.97
80654;BME280;70020;45.524;10.240;2023-07-02T07:14:45;99567.38;;;26.81;64.55
80654;BME280;70020;45.524;10.240;2023-07-02T07:17:11;99572.47;;;26.82;64.63
80654;BME280;70020;45.524;10.240;2023-07-02T07:19:36;99573.28;;;26.83;64.52
80654;BME280;70020;45.524;10.240;2023-07-02T07:22:02;99567.31;;;26.87;64.21
80654;BME280;70020;45.524;10.240;2023-07-02T07:24:28;99571.22;;;26.85;64.48
80654;BME280;70020;45.524;10.240;2023-07-02T07:26:53;99570.50;;;26.78;64.24
80654;BME280;70020;45.524;10.240;2023-07-02T07:29:19;99575.63;;;26.91;62.86
80654;BME280;70020;45.524;10.240;2023-07-02T07:31:45;99574.59;;;26.92;64.18
80654;BME280;70020;45.524;10.240;2023-07-02T07:34:11;99570.31;;;26.91;64.25
80654;BME280;70020;45.524;10.240;2023-07-02T07:36:37;99572.13;;;26.90;64.12
80654;BME280;70020;45.524;10.240;2023-07-02T07:39:02;99569.72;;;26.89;64.13
80654;BME280;70020;45.524;10.240;2023-07-02T07:41:28;99576.91;;;27.00;63.18
80654;BME280;70020;45.524;10.240;2023-07-02T07:43:54;99571.59;;;27.00;62.99
80654;BME280;70020;45.524;10.240;2023-07-02T07:46:19;99565.94;;;26.96;63.58
80654;BME280;70020;45.524;10.240;2023-07-02T07:48:44;99566.66;;;27.04;63.89
80654;BME280;70020;45.524;10.240;2023-07-02T07:51:10;99571.97;;;27.04;63.87
80654;BME280;70020;45.524;10.240;2023-07-02T07:53:39;99579.13;;;27.03;63.08
80654;BME280;70020;45.524;10.240;2023-07-02T07:56:05;99573.81;;;27.03;63.33
80654;BME280;70020;45.524;10.240;2023-07-02T07:58:30;99573.13;;;27.08;64.05
80654;BME280;70020;45.524;10.240;2023-07-02T08:00:57;99583.66;;;27.14;63.95
80654;BME280;70020;45.524;10.240;2023-07-02T08:03:23;99578.59;;;27.13;62.91
80654;BME280;70020;45.524;10.240;2023-07-02T08:05:48;99577.03;;;27.23;63.20
80654;BME280;70020;45.524;10.240;2023-07-02T08:08:14;99584.19;;;27.34;62.52
80654;BME280;70020;45.524;10.240;2023-07-02T08:10:40;99586.22;;;27.39;61.27
80654;BME280;70020;45.524;10.240;2023-07-02T08:13:05;99588.88;;;27.50;60.36
80654;BME280;70020;45.524;10.240;2023-07-02T08:15:32;99583.13;;;27.53;60.41
80654;BME280;70020;45.524;10.240;2023-07-02T08:17:58;99586.81;;;27.52;61.46
80654;BME280;70020;45.524;10.240;2023-07-02T08:20:24;99581.63;;;27.57;61.08
80654;BME280;70020;45.524;10.240;2023-07-02T08:22:49;99589.72;;;27.62;60.87
80654;BME280;70020;45.524;10.240;2023-07-02T08:25:16;99588.81;;;27.80;60.16
80654;BME280;70020;45.524;10.240;2023-07-02T08:27:43;99586.66;;;28.00;59.28
80654;BME280;70020;45.524;10.240;2023-07-02T08:30:08;99586.06;;;28.10;58.64
80654;BME280;70020;45.524;10.240;2023-07-02T08:32:34;99588.59;;;28.28;57.75
80654;BME280;70020;45.524;10.240;2023-07-02T08:34:59;99587.00;;;28.15;56.65
80654;BME280;70020;45.524;10.240;2023-07-02T08:37:28;99593.81;;;28.23;57.20
80654;BME280;70020;45.524;10.240;2023-07-02T08:39:54;99586.84;;;28.45;57.43
80654;BME280;70020;45.524;10.240;2023-07-02T08:42:19;99589.34;;;28.63;56.15
80654;BME280;70020;45.524;10.240;2023-07-02T08:44:48;99593.09;;;28.62;56.41
80654;BME280;70020;45.524;10.240;2023-07-02T08:47:14;99595.03;;;28.55;56.29
80654;BME280;70020;45.524;10.240;2023-07-02T08:49:39;99589.72;;;28.55;57.17
80654;BME280;70020;45.524;10.240;2023-07-02T08:52:05;99598.72;;;28.54;57.90
80654;BME280;70020;45.524;10.240;2023-07-02T08:54:31;99601.88;;;28.51;57.91
80654;BME280;70020;45.524;10.240;2023-07-02T08:56:56;99607.53;;;28.55;58.23
80654;BME280;70020;45.524;10.240;2023-07-02T08:59:22;99599.34;;;28.68;57.96
80654;BME280;70020;45.524;10.240;2023-07-02T09:01:48;99606.91;;;28.87;58.07
80654;BME280;70020;45.524;10.240;2023-07-02T09:04:14;99601.41;;;28.94;56.49
80654;BME280;70020;45.524;10.240;2023-07-02T09:06:40;99600.34;;;29.07;56.86
80654;BME280;70020;45.524;10.240;2023-07-02T09:09:05;99602.28;;;28.83;55.61
80654;BME280;70020;45.524;10.240;2023-07-02T09:11:31;99598.25;;;29.09;55.99
80654;BME280;70020;45.524;10.240;2023-07-02T09:13:56;99598.09;;;29.27;53.85
80654;BME280;70020;45.524;10.240;2023-07-02T09:18:54;99598.81;;;29.39;55.07
80654;BME280;70020;45.524;10.240;2023-07-02T09:21:20;99597.47;;;29.53;54.25
80654;BME280;70020;45.524;10.240;2023-07-02T09:23:46;99594.56;;;29.71;54.19
80654;BME280;70020;45.524;10.240;2023-07-02T09:26:23;99605.34;;;29.76;53.62
80654;BME280;70020;45.524;10.240;2023-07-02T09:28:49;99602.31;;;29.73;54.81
80654;BME280;70020;45.524;10.240;2023-07-02T09:31:14;99605.47;;;29.53;55.15
80654;BME280;70020;45.524;10.240;2023-07-02T09:33:40;99602.88;;;29.75;54.61
80654;BME280;70020;45.524;10.240;2023-07-02T09:36:06;99601.94;;;29.81;53.79
80654;BME280;70020;45.524;10.240;2023-07-02T09:38:31;99606.59;;;29.57;52.71
80654;BME280;70020;45.524;10.240;2023-07-02T09:40:57;99600.69;;;29.55;53.02
80654;BME280;70020;45.524;10.240;2023-07-02T09:43:23;99594.59;;;29.88;54.78
80654;BME280;70020;45.524;10.240;2023-07-02T09:45:50;99597.53;;;30.08;54.34
80654;BME280;70020;45.524;10.240;2023-07-02T09:48:17;99594.47;;;30.16;55.56
80654;BME280;70020;45.524;10.240;2023-07-02T09:50:47;99592.78;;;30.31;53.80
80654;BME280;70020;45.524;10.240;2023-07-02T09:53:13;99593.22;;;30.23;53.57
80654;BME280;70020;45.524;10.240;2023-07-02T09:55:38;99588.19;;;30.27;53.67
80654;BME280;70020;45.524;10.240;2023-07-02T09:58:04;99588.13;;;30.22;54.04
80654;BME280;70020;45.524;10.240;2023-07-02T10:00:30;99590.13;;;30.31;53.91
80654;BME280;70020;45.524;10.240;2023-07-02T10:02:56;99590.78;;;30.00;53.50
80654;BME280;70020;45.524;10.240;2023-07-02T10:07:52;99588.69;;;29.86;53.81
80654;BME280;70020;45.524;10.240;2023-07-02T10:10:28;99587.53;;;29.82;52.65
80654;BME280;70020;45.524;10.240;2023-07-02T10:12:53;99586.16;;;29.79;50.57
80654;BME280;70020;45.524;10.240;2023-07-02T10:15:26;99587.28;;;29.67;51.84
80654;BME280;70020;45.524;10.240;2023-07-02T10:18:01;99589.13;;;29.66;52.09
80654;BME280;70020;45.524;10.240;2023-07-02T10:22:58;99585.75;;;29.87;53.79
80654;BME280;70020;45.524;10.240;2023-07-02T10:25:28;99590.63;;;29.90;51.99
80654;BME280;70020;45.524;10.240;2023-07-02T10:27:54;99581.31;;;29.93;52.36
80654;BME280;70020;45.524;10.240;2023-07-02T10:30:29;99584.72;;;29.88;54.67
80654;BME280;70020;45.524;10.240;2023-07-02T10:32:55;99579.50;;;29.65;52.08
80654;BME280;70020;45.524;10.240;2023-07-02T10:35:32;99583.41;;;29.74;53.36
80654;BME280;70020;45.524;10.240;2023-07-02T10:37:58;99581.31;;;29.93;52.64
80654;BME280;70020;45.524;10.240;2023-07-02T10:40:24;99581.81;;;29.90;52.74
80654;BME280;70020;45.524;10.240;2023-07-02T10:42:50;99581.13;;;29.66;52.74
80654;BME280;70020;45.524;10.240;2023-07-02T10:45:16;99577.66;;;29.65;52.40
80654;BME280;70020;45.524;10.240;2023-07-02T10:47:42;99575.41;;;29.57;52.37
80654;BME280;70020;45.524;10.240;2023-07-02T10:50:15;99579.69;;;29.58;54.02
80654;BME280;70020;45.524;10.240;2023-07-02T10:52:41;99578.31;;;29.56;52.71
80654;BME280;70020;45.524;10.240;2023-07-02T10:55:07;99577.75;;;29.54;52.37
80654;BME280;70020;45.524;10.240;2023-07-02T10:57:32;99571.38;;;29.72;53.95
80654;BME280;70020;45.524;10.240;2023-07-02T11:00:05;99578.56;;;29.88;51.35
80654;BME280;70020;45.524;10.240;2023-07-02T11:02:37;99576.13;;;29.70;50.23
80654;BME280;70020;45.524;10.240;2023-07-02T11:05:06;99574.91;;;29.60;50.32
80654;BME280;70020;45.524;10.240;2023-07-02T11:07:32;99576.69;;;30.05;50.27
80654;BME280;70020;45.524;10.240;2023-07-02T11:09:57;99572.59;;;30.36;50.85
80654;BME280;70020;45.524;10.240;2023-07-02T11:12:29;99564.81;;;30.34;50.15
80654;BME280;70020;45.524;10.240;2023-07-02T11:14:55;99559.94;;;30.48;51.20
80654;BME280;70020;45.524;10.240;2023-07-02T11:17:24;99566.75;;;30.60;49.49
80654;BME280;70020;45.524;10.240;2023-07-02T11:19:50;99558.44;;;30.78;50.61
80654;BME280;70020;45.524;10.240;2023-07-02T11:22:17;99558.31;;;30.90;50.02
80654;BME280;70020;45.524;10.240;2023-07-02T11:24:42;99557.63;;;31.05;49.50
80654;BME280;70020;45.524;10.240;2023-07-02T11:27:08;99561.28;;;31.20;47.33
80654;BME280;70020;45.524;10.240;2023-07-02T11:29:34;99570.38;;;31.24;48.96
80654;BME280;70020;45.524;10.240;2023-07-02T11:32:10;99555.94;;;31.20;47.14
80654;BME280;70020;45.524;10.240;2023-07-02T11:34:35;99556.81;;;31.31;48.05
80654;BME280;70020;45.524;10.240;2023-07-02T11:37:01;99557.56;;;31.26;49.83
80654;BME280;70020;45.524;10.240;2023-07-02T11:39:27;99559.78;;;31.34;48.02
80654;BME280;70020;45.524;10.240;2023-07-02T11:41:52;99558.59;;;31.47;47.89
80654;BME280;70020;45.524;10.240;2023-07-02T11:44:18;99549.84;;;31.61;47.95
80654;BME280;70020;45.524;10.240;2023-07-02T11:46:44;99551.78;;;31.34;46.92
80654;BME280;70020;45.524;10.240;2023-07-02T11:49:10;99550.81;;;31.19;46.25
80654;BME280;70020;45.524;10.240;2023-07-02T11:51:36;99551.94;;;30.96;46.64
80654;BME280;70020;45.524;10.240;2023-07-02T11:54:02;99551.19;;;30.79;47.36
80654;BME280;70020;45.524;10.240;2023-07-02T11:56:27;99545.06;;;30.78;48.13
80654;BME280;70020;45.524;10.240;2023-07-02T11:58:53;99546.47;;;30.86;51.10
80654;BME280;70020;45.524;10.240;2023-07-02T12:01:18;99542.56;;;30.72;49.10
80654;BME280;70020;45.524;10.240;2023-07-02T12:03:44;99542.97;;;30.59;47.91
80654;BME280;70020;45.524;10.240;2023-07-02T12:06:10;99548.94;;;30.66;47.79
80654;BME280;70020;45.524;10.240;2023-07-02T12:08:36;99539.88;;;30.93;47.17
80654;BME280;70020;45.524;10.240;2023-07-02T12:11:01;99544.25;;;31.00;47.88
80654;BME280;70020;45.524;10.240;2023-07-02T12:13:27;99541.19;;;31.44;48.51
80654;BME280;70020;45.524;10.240;2023-07-02T12:15:52;99546.94;;;31.63;48.50
80654;BME280;70020;45.524;10.240;2023-07-02T12:18:18;99541.50;;;31.53;47.62
80654;BME280;70020;45.524;10.240;2023-07-02T12:20:43;99545.41;;;31.72;45.28
80654;BME280;70020;45.524;10.240;2023-07-02T12:23:09;99548.38;;;31.81;47.55
80654;BME280;70020;45.524;10.240;2023-07-02T12:25:36;99546.16;;;32.04;46.22
80654;BME280;70020;45.524;10.240;2023-07-02T12:28:05;99543.06;;;31.86;45.16
80654;BME280;70020;45.524;10.240;2023-07-02T12:30:31;99543.94;;;31.96;45.37
80654;BME280;70020;45.524;10.240;2023-07-02T12:32:56;99549.31;;;31.96;44.39
80654;BME280;70020;45.524;10.240;2023-07-02T12:35:22;99546.16;;;32.04;43.32
80654;BME280;70020;45.524;10.240;2023-07-02T12:37:49;99540.72;;;31.94;44.64
80654;BME280;70020;45.524;10.240;2023-07-02T12:40:15;99546.03;;;31.84;45.35
80654;BME280;70020;45.524;10.240;2023-07-02T12:42:41;99545.16;;;31.79;43.62
80654;BME280;70020;45.524;10.240;2023-07-02T12:45:07;99544.13;;;31.80;45.34
80654;BME280;70020;45.524;10.240;2023-07-02T12:47:33;99543.88;;;31.86;44.41
80654;BME280;70020;45.524;10.240;2023-07-02T12:49:58;99546.94;;;32.00;43.85
80654;BME280;70020;45.524;10.240;2023-07-02T12:52:24;99546.84;;;31.90;43.34
80654;BME280;70020;45.524;10.240;2023-07-02T12:54:49;99542.28;;;31.90;45.25
80654;BME280;70020;45.524;10.240;2023-07-02T12:57:15;99541.47;;;31.85;45.12